sensor_id;sensor_type;location;lat;lon;timestamp;pressure;altitude;pressure_sealevel;temperature;humidity
37904;BME280;23738;50.422;18.758;2022-12-18T00:01:23;99938.96;;;-3.13;78.81
37904;BME280;23738;50.422;18.758;2022-12-18T00:03:54;99938.05;;;-3.12;78.76
37904;BME280;23738;50.422;18.758;2022-12-18T00:06:22;99942.59;;;-3.08;78.81
37904;BME280;23738;50.422;18.758;2022-12-18T00:08:49;99942.52;;;-3.06;78.74
37904;BME280;23738;50.422;18.758;2022-12-18T00:11:22;99947.45;;;-3.11;78.70
37904;BME280;23738;50.422;18.758;2022-12-18T00:13:50;99952.92;;;-3.08;78.71
37904;BME280;23738;50.422;18.758;2022-12-18T00:16:19;99951.48;;;-3.05;78.77
37904;BME280;23738;50.422;18.758;2022-12-18T00:18:52;99955.30;;;-3.03;78.61
37904;BME280;23738;50.422;18.758;2022-12-18T00:21:15;99947.83;;;-3.10;78.52
37904;BME280;23738;50.422;18.758;2022-12-18T00:23:43;99949.20;;;-3.11;78.60
37904;BME280;23738;50.422;18.758;2022-12-18T00:26:15;99953.91;;;-3.11;78.59
37904;BME280;23738;50.422;18.758;2022-12-18T00:28:45;99956.88;;;-3.10;78.63
37904;BME280;23738;50.422;18.758;2022-12-18T00:31:14;99962.50;;;-3.10;78.56
37904;BME280;23738;50.422;18.758;2022-12-18T00:33:41;99968.44;;;-3.08;78.67
37904;BME280;23738;50.422;18.758;2022-12-18T00:36:13;99970.57;;;-3.07;78.62
37904;BME280;23738;50.422;18.758;2022-12-18T00:38:41;99967.98;;;-3.07;78.53
37904;BME280;23738;50.422;18.758;2022-12-18T00:41:08;99978.47;;;-3.11;78.44
37904;BME280;23738;50.422;18.758;2022-12-18T00:43:35;99978.27;;;-3.15;78.50
37904;BME280;23738;50.422;18.758;2022-12-18T00:46:02;99986.55;;;-3.17;78.42
37904;BME280;23738;50.422;18.758;2022-12-18T00:48:29;99986.23;;;-3.19;78.42
37904;BME280;23738;50.422;18.758;2022-12-18T00:50:55;99983.83;;;-3.22;78.42
37904;BME280;23738;50.422;18.758;2022-12-18T00:53:21;99990.88;;;-3.26;78.35
37904;BME280;23738;50.422;18.758;2022-12-18T00:55:47;99997.90;;;-3.28;78.35
37904;BME280;23738;50.422;18.758;2022-12-18T00:58:15;100002.69;;;-3.29;78.40
37904;BME280;23738;50.422;18.758;2022-12-18T01:00:42;100004.05;;;-3.30;78.42
37904;BME280;23738;50.422;18.758;2022-12-18T01:03:10;100008.23;;;-3.28;78.46
37904;BME280;23738;50.422;18.758;2022-12-18T01:05:40;100017.80;;;-3.30;78.36
37904;BME280;23738;50.422;18.758;2022-12-18T01:08:06;100023.43;;;-3.30;78.37
37904;BME280;23738;50.422;18.758;2022-12-18T01:10:32;100021.44;;;-3.34;78.32
37904;BME280;23738;50.422;18.758;2022-12-18T01:12:58;100022.66;;;-3.32;78.46
37904;BME280;23738;50.422;18.758;2022-12-18T01:15:24;100023.88;;;-3.31;78.43
37904;BME280;23738;50.422;18.758;2022-12-18T01:17:52;100018.33;;;-3.32;78.41
37904;BME280;23738;50.422;18.758;2022-12-18T01:20:18;100019.63;;;-3.32;78.41
37904;BME280;23738;50.422;18.758;2022-12-18T01:22:44;100015.75;;;-3.32;78.43
37904;BME280;23738;50.422;18.758;2022-12-18T01:25:10;100017.88;;;-3.31;78.47
37904;BME280;23738;50.422;18.758;2022-12-18T01:27:36;100018.27;;;-3.30;78.43
37904;BME280;23738;50.422;18.758;2022-12-18T01:30:03;100026.40;;;-3.29;78.52
37904;BME280;23738;50.422;18.758;2022-12-18T01:32:30;100023.75;;;-3.28;78.45
37904;BME280;23738;50.422;18.758;2022-12-18T01:34:56;100027.17;;;-3.27;78.50
37904;BME280;23738;50.422;18.758;2022-12-18T01:37:22;100022.28;;;-3.25;78.50
37904;BME280;23738;50.422;18.758;2022-12-18T01:39:48;100021.83;;;-3.24;78.46
37904;BME280;23738;50.422;18.758;2022-12-18T01:42:15;100030.42;;;-3.24;78.42
37904;BME280;23738;50.422;18.758;2022-12-18T01:47:47;100037.41;;;-3.26;78.43
37904;BME280;23738;50.422;18.758;2022-12-18T01:50:36;100035.27;;;-3.26;78.45
37904;BME280;23738;50.422;18.758;2022-12-18T01:53:07;100040.44;;;-3.26;78.46
37904;BME280;23738;50.422;18.758;2022-12-18T01:55:50;100040.55;;;-3.28;78.37
37904;BME280;23738;50.422;18.758;2022-12-18T01:58:16;100039.91;;;-3.33;78.32
37904;BME280;23738;50.422;18.758;2022-12-18T02:00:43;100045.61;;;-3.35;78.39
37904;BME280;23738;50.422;18.758;2022-12-18T02:03:10;100052.84;;;-3.33;78.34
37904;BME280;23738;50.422;18.758;2022-12-18T02:05:56;100059.82;;;-3.35;78.35
37904;BME280;23738;50.422;18.758;2022-12-18T02:11:05;100068.52;;;-3.36;78.38
37904;BME280;23738;50.422;18.758;2022-12-18T02:22:15;100084.67;;;-3.41;78.39
37904;BME280;23738;50.422;18.758;2022-12-18T02:25:05;100089.00;;;-3.41;78.44
37904;BME280;23738;50.422;18.758;2022-12-18T02:27:47;100090.23;;;-3.40;78.44
37904;BME280;23738;50.422;18.758;2022-12-18T02:30:15;100085.52;;;-3.40;78.41
37904;BME280;23738;50.422;18.758;2022-12-18T02:32:47;100089.84;;;-3.41;78.35
37904;BME280;23738;50.422;18.758;2022-12-18T02:35:24;100095.63;;;-3.44;78.22
37904;BME280;23738;50.422;18.758;2022-12-18T02:37:56;100093.95;;;-3.45;78.32
37904;BME280;23738;50.422;18.758;2022-12-18T02:40:25;100097.38;;;-3.45;78.35
37904;BME280;23738;50.422;18.758;2022-12-18T02:42:52;100101.70;;;-3.45;78.34
37904;BME280;23738;50.422;18.758;2022-12-18T02:45:17;100104.28;;;-3.45;78.23
37904;BME280;23738;50.422;18.758;2022-12-18T02:47:46;100104.35;;;-3.47;78.32
37904;BME280;23738;50.422;18.758;2022-12-18T02:50:26;100110.67;;;-3.44;78.33
37904;BME280;23738;50.422;18.758;2022-12-18T03:01:24;100117.42;;;-3.41;78.43
37904;BME280;23738;50.422;18.758;2022-12-18T03:03:55;100129.95;;;-3.42;78.27
37904;BME280;23738;50.422;18.758;2022-12-18T03:06:30;100138.55;;;-3.42;78.32
37904;BME280;23738;50.422;18.758;2022-12-18T03:09:07;100140.39;;;-3.44;78.28
37904;BME280;23738;50.422;18.758;2022-12-18T03:11:37;100149.72;;;-3.41;78.37
37904;BME280;23738;50.422;18.758;2022-12-18T03:14:25;100150.43;;;-3.38;78.45
37904;BME280;23738;50.422;18.758;2022-12-18T03:16:54;100146.94;;;-3.37;78.39
37904;BME280;23738;50.422;18.758;2022-12-18T03:19:26;100151.20;;;-3.36;78.42
37904;BME280;23738;50.422;18.758;2022-12-18T03:21:56;100145.20;;;-3.36;78.27
37904;BME280;23738;50.422;18.758;2022-12-18T03:24:24;100143.58;;;-3.39;78.25
37904;BME280;23738;50.422;18.758;2022-12-18T03:26:54;100147.98;;;-3.41;78.20
37904;BME280;23738;50.422;18.758;2022-12-18T03:29:26;100143.72;;;-3.42;78.25
37904;BME280;23738;50.422;18.758;2022-12-18T03:32:04;100144.40;;;-3.47;78.22
37904;BME280;23738;50.422;18.758;2022-12-18T03:34:38;100146.98;;;-3.47;78.22
37904;BME280;23738;50.422;18.758;2022-12-18T03:37:06;100152.67;;;-3.49;78.18
37904;BME280;23738;50.422;18.758;2022-12-18T03:39:33;100152.73;;;-3.51;78.17
37904;BME280;23738;50.422;18.758;2022-12-18T03:42:10;100156.16;;;-3.50;78.29
37904;BME280;23738;50.422;18.758;2022-12-18T03:44:56;100161.71;;;-3.49;78.28
37904;BME280;23738;50.422;18.758;2022-12-18T03:50:21;100167.49;;;-3.53;78.14
37904;BME280;23738;50.422;18.758;2022-12-18T03:52:52;100179.96;;;-3.52;78.27
37904;BME280;23738;50.422;18.758;2022-12-18T03:55:33;100179.80;;;-3.49;78.32
37904;BME280;23738;50.422;18.758;2022-12-18T03:58:01;100181.80;;;-3.45;78.41
37904;BME280;23738;50.422;18.758;2022-12-18T04:00:30;100181.96;;;-3.40;78.35
37904;BME280;23738;50.422;18.758;2022-12-18T04:02:57;100187.73;;;-3.35;78.47
37904;BME280;23738;50.422;18.758;2022-12-18T04:05:25;100180.76;;;-3.33;78.41
37904;BME280;23738;50.422;18.758;2022-12-18T04:07:53;100183.21;;;-3.30;78.41
37904;BME280;23738;50.422;18.758;2022-12-18T04:10:20;100189.44;;;-3.25;78.39
37904;BME280;23738;50.422;18.758;2022-12-18T04:12:46;100193.25;;;-3.24;78.35
37904;BME280;23738;50.422;18.758;2022-12-18T04:15:12;100190.73;;;-3.25;78.27
37904;BME280;23738;50.422;18.758;2022-12-18T04:17:43;100184.50;;;-3.30;78.20
37904;BME280;23738;50.422;18.758;2022-12-18T04:20:10;100189.16;;;-3.28;78.28
37904;BME280;23738;50.422;18.758;2022-12-18T04:22:36;100192.03;;;-3.25;78.30
37904;BME280;23738;50.422;18.758;2022-12-18T04:25:02;100198.20;;;-3.28;78.19
37904;BME280;23738;50.422;18.758;2022-12-18T04:27:28;100192.91;;;-3.35;78.19
37904;BME280;23738;50.422;18.758;2022-12-18T04:29:54;100202.59;;;-3.30;78.21
37904;BME280;23738;50.422;18.758;2022-12-18T04:32:20;100207.77;;;-3.30;78.26
37904;BME280;23738;50.422;18.758;2022-12-18T04:34:46;100209.83;;;-3.28;78.28
37904;BME280;23738;50.422;18.758;2022-12-18T04:37:11;100206.31;;;-3.27;78.22
37904;BME280;23738;50.422;18.758;2022-12-18T04:39:37;100208.38;;;-3.25;78.22
37904;BME280;23738;50.422;18.758;2022-12-18T04:42:03;100210.51;;;-3.24;78.22
37904;BME280;23738;50.422;18.758;2022-12-18T04:44:28;100209.59;;;-3.23;78.27
37904;BME280;23738;50.422;18.758;2022-12-18T04:46:54;100211.73;;;-3.23;78.22
37904;BME280;23738;50.422;18.758;2022-12-18T04:49:21;100213.41;;;-3.22;78.23
37904;BME280;23738;50.422;18.758;2022-12-18T04:51:47;100223.36;;;-3.23;78.17
37904;BME280;23738;50.422;18.758;2022-12-18T04:54:13;100221.62;;;-3.22;78.26
37904;BME280;23738;50.422;18.758;2022-12-18T04:56:38;100223.98;;;-3.18;78.34
37904;BME280;23738;50.422;18.758;2022-12-18T04:59:05;100225.52;;;-3.14;78.31
37904;BME280;23738;50.422;18.758;2022-12-18T05:01:33;100229.23;;;-3.11;78.26
37904;BME280;23738;50.422;18.758;2022-12-18T05:04:00;100232.66;;;-3.10;78.24
37904;BME280;23738;50.422;18.758;2022-12-18T05:06:26;100239.52;;;-3.09;78.18
37904;BME280;23738;50.422;18.758;2022-12-18T05:08:52;100237.31;;;-3.08;78.27
37904;BME280;23738;50.422;18.758;2022-12-18T05:11:18;100246.69;;;-3.05;78.27
37904;BME280;23738;50.422;18.758;2022-12-18T05:13:44;100250.95;;;-3.04;78.21
37904;BME280;23738;50.422;18.758;2022-12-18T05:16:11;100254.44;;;-3.05;78.13
37904;BME280;23738;50.422;18.758;2022-12-18T05:18:38;100257.41;;;-3.04;78.19
37904;BME280;23738;50.422;18.758;2022-12-18T05:21:04;100255.34;;;-3.06;78.09
37904;BME280;23738;50.422;18.758;2022-12-18T05:23:35;100252.89;;;-3.10;78.00
37904;BME280;23738;50.422;18.758;2022-12-18T05:26:04;100256.03;;;-3.12;78.07
37904;BME280;23738;50.422;18.758;2022-12-18T05:28:32;100259.06;;;-3.12;78.06
37904;BME280;23738;50.422;18.758;2022-12-18T05:31:01;100252.95;;;-3.11;78.05
37904;BME280;23738;50.422;18.758;2022-12-18T05:33:30;100262.84;;;-3.11;78.04
37904;BME280;23738;50.422;18.758;2022-12-18T05:36:02;100268.86;;;-3.10;78.04
37904;BME280;23738;50.422;18.758;2022-12-18T05:38:30;100267.89;;;-3.07;78.13
37904;BME280;23738;50.422;18.758;2022-12-18T05:40:57;100269.05;;;-3.04;78.12
37904;BME280;23738;50.422;18.758;2022-12-18T05:43:24;100274.44;;;-3.00;78.17
37904;BME280;23738;50.422;18.758;2022-12-18T05:45:52;100273.16;;;-3.00;78.12
37904;BME280;23738;50.422;18.758;2022-12-18T05:48:21;100283.36;;;-2.97;78.08
37904;BME280;23738;50.422;18.758;2022-12-18T05:50:48;100281.69;;;-2.98;78.04
37904;BME280;23738;50.422;18.758;2022-12-18T05:53:17;100282.98;;;-2.98;77.95
37904;BME280;23738;50.422;18.758;2022-12-18T05:55:44;100285.95;;;-2.97;78.02
37904;BME280;23738;50.422;18.758;2022-12-18T05:58:12;100287.76;;;-2.99;77.92
37904;BME280;23738;50.422;18.758;2022-12-18T06:00:41;100291.31;;;-3.02;77.81
37904;BME280;23738;50.422;18.758;2022-12-18T06:03:10;100295.36;;;-3.05;77.86
37904;BME280;23738;50.422;18.758;2022-12-18T06:05:43;100285.38;;;-3.13;77.95
37904;BME280;23738;50.422;18.758;2022-12-18T06:08:08;100285.38;;;-3.13;77.95
37904;BME280;23738;50.422;18.758;2022-12-18T06:10:34;100287.28;;;-3.07;77.90
37904;BME280;23738;50.422;18.758;2022-12-18T06:13:00;100294.06;;;-3.05;77.93
37904;BME280;23738;50.422;18.758;2022-12-18T06:15:26;100295.48;;;-3.08;77.74
37904;BME280;23738;50.422;18.758;2022-12-18T06:17:52;100293.80;;;-3.09;77.77
37904;BME280;23738;50.422;18.758;2022-12-18T06:20:18;100302.41;;;-3.09;77.81
37904;BME280;23738;50.422;18.758;2022-12-18T06:22:44;100309.32;;;-3.09;77.81
37904;BME280;23738;50.422;18.758;2022-12-18T06:25:10;100308.09;;;-3.11;77.73
37904;BME280;23738;50.422;18.758;2022-12-18T06:27:35;100309.61;;;-3.15;77.66
37904;BME280;23738;50.422;18.758;2022-12-18T06:30:01;100309.67;;;-3.17;77.73
37904;BME280;23738;50.422;18.758;2022-12-18T06:32:28;100317.81;;;-3.16;77.77
37904;BME280;23738;50.422;18.758;2022-12-18T06:34:53;100322.98;;;-3.16;77.68
37904;BME280;23738;50.422;18.758;2022-12-18T06:37:21;100328.22;;;-3.17;77.66
37904;BME280;23738;50.422;18.758;2022-12-18T06:39:49;100329.58;;;-3.19;77.68
37904;BME280;23738;50.422;18.758;2022-12-18T06:42:15;100325.18;;;-3.17;77.70
37904;BME280;23738;50.422;18.758;2022-12-18T06:44:40;100331.19;;;-3.16;77.66
37904;BME280;23738;50.422;18.758;2022-12-18T06:47:06;100338.11;;;-3.17;77.65
37904;BME280;23738;50.422;18.758;2022-12-18T06:49:32;100341.92;;;-3.15;77.70
37904;BME280;23738;50.422;18.758;2022-12-18T06:51:58;100340.24;;;-3.16;77.62
37904;BME280;23738;50.422;18.758;2022-12-18T06:54:23;100336.81;;;-3.17;77.66
37904;BME280;23738;50.422;18.758;2022-12-18T06:56:49;100341.86;;;-3.14;77.69
37904;BME280;23738;50.422;18.758;2022-12-18T06:59:15;100347.80;;;-3.12;77.67
37904;BME280;23738;50.422;18.758;2022-12-18T07:01:41;100348.61;;;-3.11;77.67
37904;BME280;23738;50.422;18.758;2022-12-18T07:04:06;100352.82;;;-3.09;77.66
37904;BME280;23738;50.422;18.758;2022-12-18T07:06:32;100353.05;;;-3.13;77.55
37904;BME280;23738;50.422;18.758;2022-12-18T07:08:58;100364.12;;;-3.11;77.57
37904;BME280;23738;50.422;18.758;2022-12-18T07:11:24;100369.23;;;-3.10;77.59
37904;BME280;23738;50.422;18.758;2022-12-18T07:13:50;100367.81;;;-3.06;77.63
37904;BME280;23738;50.422;18.758;2022-12-18T07:16:18;100374.28;;;-3.06;77.51
37904;BME280;23738;50.422;18.758;2022-12-18T07:18:45;100374.86;;;-3.10;77.46
37904;BME280;23738;50.422;18.758;2022-12-18T07:21:14;100382.55;;;-3.09;77.54
37904;BME280;23738;50.422;18.758;2022-12-18T07:23:41;100378.94;;;-3.04;77.59
37904;BME280;23738;50.422;18.758;2022-12-18T07:26:09;100379.49;;;-2.98;77.67
37904;BME280;23738;50.422;18.758;2022-12-18T07:28:36;100384.05;;;-2.94;77.59
37904;BME280;23738;50.422;18.758;2022-12-18T07:31:09;100385.22;;;-2.91;77.58
37904;BME280;23738;50.422;18.758;2022-12-18T07:33:37;100383.09;;;-2.92;77.52
37904;BME280;23738;50.422;18.758;2022-12-18T07:36:05;100394.27;;;-2.91;77.50
37904;BME280;23738;50.422;18.758;2022-12-18T07:38:33;100391.69;;;-2.91;77.49
37904;BME280;23738;50.422;18.758;2022-12-18T07:41:11;100395.44;;;-2.88;77.50
37904;BME280;23738;50.422;18.758;2022-12-18T07:43:38;100405.23;;;-2.86;77.50
37904;BME280;23738;50.422;18.758;2022-12-18T07:46:06;100404.20;;;-2.82;77.51
37904;BME280;23738;50.422;18.758;2022-12-18T07:48:32;100406.02;;;-2.84;77.33
37904;BME280;23738;50.422;18.758;2022-12-18T07:51:00;100403.43;;;-2.84;77.38
37904;BME280;23738;50.422;18.758;2022-12-18T07:53:27;100398.58;;;-2.82;77.40
37904;BME280;23738;50.422;18.758;2022-12-18T07:55:57;100400.84;;;-2.84;77.33
37904;BME280;23738;50.422;18.758;2022-12-18T07:58:28;100401.11;;;-2.80;77.35
37904;BME280;23738;50.422;18.758;2022-12-18T08:01:06;100397.97;;;-2.78;77.35
37904;BME280;23738;50.422;18.758;2022-12-18T08:03:28;100394.73;;;-2.73;77.30
37904;BME280;23738;50.422;18.758;2022-12-18T08:05:59;100399.84;;;-2.72;77.32
37904;BME280;23738;50.422;18.758;2022-12-18T08:08:28;100402.21;;;-2.67;77.35
37904;BME280;23738;50.422;18.758;2022-12-18T08:10:54;100403.21;;;-2.61;77.30
37904;BME280;23738;50.422;18.758;2022-12-18T08:13:21;100399.66;;;-2.58;77.24
37904;BME280;23738;50.422;18.758;2022-12-18T08:16:22;100403.76;;;-2.54;77.29
37904;BME280;23738;50.422;18.758;2022-12-18T08:18:26;100403.05;;;-2.48;77.33
37904;BME280;23738;50.422;18.758;2022-12-18T08:20:52;100403.66;;;-2.43;77.32
37904;BME280;23738;50.422;18.758;2022-12-18T08:23:18;100415.17;;;-2.40;77.27
37904;BME280;23738;50.422;18.758;2022-12-18T08:25:44;100414.55;;;-2.36;77.20
37904;BME280;23738;50.422;18.758;2022-12-18T08:28:10;100418.05;;;-2.37;77.11
37904;BME280;23738;50.422;18.758;2022-12-18T08:30:36;100418.77;;;-2.34;77.19
37904;BME280;23738;50.422;18.758;2022-12-18T08:33:02;100429.72;;;-2.28;77.25
37904;BME280;23738;50.422;18.758;2022-12-18T08:35:29;100428.77;;;-2.17;77.33
37904;BME280;23738;50.422;18.758;2022-12-18T08:37:54;100437.67;;;-2.14;77.11
37904;BME280;23738;50.422;18.758;2022-12-18T08:40:20;100440.64;;;-2.13;77.16
37904;BME280;23738;50.422;18.758;2022-12-18T08:42:46;100436.11;;;-2.08;77.22
37904;BME280;23738;50.422;18.758;2022-12-18T08:45:34;100440.30;;;-1.97;77.31
37904;BME280;23738;50.422;18.758;2022-12-18T08:48:00;100450.09;;;-1.76;77.44
37904;BME280;23738;50.422;18.758;2022-12-18T08:50:25;100451.23;;;-1.56;77.39
37904;BME280;23738;50.422;18.758;2022-12-18T08:52:51;100454.52;;;-1.44;77.20
37904;BME280;23738;50.422;18.758;2022-12-18T08:55:17;100458.62;;;-1.40;77.13
37904;BME280;23738;50.422;18.758;2022-12-18T08:57:43;100450.31;;;-1.38;77.09
37904;BME280;23738;50.422;18.758;2022-12-18T09:00:13;100440.85;;;-1.39;77.09
37904;BME280;23738;50.422;18.758;2022-12-18T09:02:40;100451.42;;;-1.26;77.02
37904;BME280;23738;50.422;18.758;2022-12-18T09:05:06;100456.22;;;-1.19;77.08
37904;BME280;23738;50.422;18.758;2022-12-18T09:07:32;100459.36;;;-1.12;77.04
37904;BME280;23738;50.422;18.758;2022-12-18T09:09:58;100457.67;;;-1.04;76.96
37904;BME280;23738;50.422;18.758;2022-12-18T09:12:24;100457.27;;;-0.97;76.96
37904;BME280;23738;50.422;18.758;2022-12-18T09:14:50;100459.92;;;-0.90;76.93
37904;BME280;23738;50.422;18.758;2022-12-18T09:17:15;100462.49;;;-0.81;76.90
37904;BME280;23738;50.422;18.758;2022-12-18T09:19:41;100465.65;;;-0.67;76.97
37904;BME280;23738;50.422;18.758;2022-12-18T09:22:07;100462.52;;;-0.65;76.74
37904;BME280;23738;50.422;18.758;2022-12-18T09:24:33;100470.69;;;-0.64;76.60
37904;BME280;23738;50.422;18.758;2022-12-18T09:26:58;100455.70;;;-0.59;76.84
37904;BME280;23738;50.422;18.758;2022-12-18T09:29:24;100462.20;;;-0.44;76.65
37904;BME280;23738;50.422;18.758;2022-12-18T09:31:50;100458.04;;;-0.39;76.53
37904;BME280;23738;50.422;18.758;2022-12-18T09:34:16;100463.08;;;-0.36;76.46
37904;BME280;23738;50.422;18.758;2022-12-18T09:36:42;100463.77;;;-0.32;76.44
37904;BME280;23738;50.422;18.758;2022-12-18T09:39:08;100472.59;;;-0.28;76.40
37904;BME280;23738;50.422;18.758;2022-12-18T09:41:55;100470.75;;;-0.26;76.28
37904;BME280;23738;50.422;18.758;2022-12-18T09:44:32;100470.56;;;-0.23;76.30
37904;BME280;23738;50.422;18.758;2022-12-18T09:47:09;100480.27;;;-0.18;76.28
37904;BME280;23738;50.422;18.758;2022-12-18T09:49:42;100477.44;;;-0.22;76.19
37904;BME280;23738;50.422;18.758;2022-12-18T09:52:30;100480.84;;;-0.28;76.27
37904;BME280;23738;50.422;18.758;2022-12-18T09:55:09;100473.66;;;-0.32;76.13
37904;BME280;23738;50.422;18.758;2022-12-18T09:57:41;100478.28;;;-0.37;76.09
37904;BME280;23738;50.422;18.758;2022-12-18T10:00:24;100476.02;;;-0.43;75.82
37904;BME280;23738;50.422;18.758;2022-12-18T10:02:48;100482.63;;;-0.37;75.97
37904;BME280;23738;50.422;18.758;2022-12-18T10:05:28;100481.80;;;-0.22;76.00
37904;BME280;23738;50.422;18.758;2022-12-18T10:08:10;100471.13;;;-0.09;76.11
37904;BME280;23738;50.422;18.758;2022-12-18T10:10:53;100473.45;;;-0.05;75.70
37904;BME280;23738;50.422;18.758;2022-12-18T10:13:36;100465.05;;;-0.01;75.83
37904;BME280;23738;50.422;18.758;2022-12-18T10:19:18;100460.01;;;0.19;75.77
37904;BME280;23738;50.422;18.758;2022-12-18T10:24:53;100450.75;;;0.22;75.49
37904;BME280;23738;50.422;18.758;2022-12-18T10:27:26;100451.42;;;0.10;75.35
37904;BME280;23738;50.422;18.758;2022-12-18T10:29:53;100443.47;;;0.13;75.54
37904;BME280;23738;50.422;18.758;2022-12-18T10:32:24;100444.33;;;0.20;75.30
37904;BME280;23738;50.422;18.758;2022-12-18T10:34:55;100450.85;;;0.27;75.27
37904;BME280;23738;50.422;18.758;2022-12-18T10:37:25;100432.55;;;0.22;75.13
37904;BME280;23738;50.422;18.758;2022-12-18T10:40:15;100446.05;;;0.35;75.13
37904;BME280;23738;50.422;18.758;2022-12-18T10:42:39;100438.72;;;0.42;75.11
37904;BME280;23738;50.422;18.758;2022-12-18T10:45:15;100439.95;;;0.51;74.94
37904;BME280;23738;50.422;18.758;2022-12-18T10:47:45;100440.63;;;0.54;74.94
37904;BME280;23738;50.422;18.758;2022-12-18T10:50:22;100437.59;;;0.69;75.05
37904;BME280;23738;50.422;18.758;2022-12-18T10:52:55;100432.10;;;0.81;75.00
37904;BME280;23738;50.422;18.758;2022-12-18T10:55:26;100424.33;;;0.95;75.00
37904;BME280;23738;50.422;18.758;2022-12-18T11:01:12;100415.75;;;1.14;74.91
37904;BME280;23738;50.422;18.758;2022-12-18T11:06:25;100408.69;;;1.23;74.72
37904;BME280;23738;50.422;18.758;2022-12-18T11:09:17;100401.80;;;1.22;74.59
37904;BME280;23738;50.422;18.758;2022-12-18T11:11:49;100402.47;;;1.19;74.39
37904;BME280;23738;50.422;18.758;2022-12-18T11:14:27;100402.58;;;1.10;74.33
37904;BME280;23738;50.422;18.758;2022-12-18T11:17:31;100402.95;;;1.11;74.55
37904;BME280;23738;50.422;18.758;2022-12-18T11:20:07;100409.25;;;1.14;74.37
37904;BME280;23738;50.422;18.758;2022-12-18T11:25:30;100405.55;;;1.11;74.26
37904;BME280;23738;50.422;18.758;2022-12-18T11:27:59;100413.16;;;1.07;74.09
37904;BME280;23738;50.422;18.758;2022-12-18T11:30:29;100421.44;;;0.99;73.99
37904;BME280;23738;50.422;18.758;2022-12-18T11:33:19;100422.45;;;0.90;73.91
37904;BME280;23738;50.422;18.758;2022-12-18T11:35:51;100430.72;;;0.82;73.90
37904;BME280;23738;50.422;18.758;2022-12-18T11:38:24;100432.39;;;0.76;73.75
37904;BME280;23738;50.422;18.758;2022-12-18T11:41:09;100427.65;;;0.75;73.61
37904;BME280;23738;50.422;18.758;2022-12-18T11:44:00;100433.40;;;0.73;73.65
37904;BME280;23738;50.422;18.758;2022-12-18T11:49:13;100442.02;;;0.60;73.44
37904;BME280;23738;50.422;18.758;2022-12-18T11:51:50;100436.52;;;0.50;73.42
37904;BME280;23738;50.422;18.758;2022-12-18T11:54:23;100430.38;;;0.44;73.50
37904;BME280;23738;50.422;18.758;2022-12-18T11:56:53;100435.75;;;0.41;73.34
37904;BME280;23738;50.422;18.758;2022-12-18T12:13:46;100437.95;;;0.03;72.99
37904;BME280;23738;50.422;18.758;2022-12-18T12:16:39;100434.86;;;-0.04;72.91
37904;BME280;23738;50.422;18.758;2022-12-18T12:31:23;100460.81;;;-0.11;73.04
37904;BME280;23738;50.422;18.758;2022-12-18T12:36:52;100458.59;;;-0.10;73.08
37904;BME280;23738;50.422;18.758;2022-12-18T12:39:27;100454.13;;;-0.08;73.03
37904;BME280;23738;50.422;18.758;2022-12-18T12:41:56;100463.22;;;-0.08;72.93
37904;BME280;23738;50.422;18.758;2022-12-18T12:44:47;100460.05;;;-0.13;72.92
37904;BME280;23738;50.422;18.758;2022-12-18T12:47:18;100469.21;;;0.02;73.00
37904;BME280;23738;50.422;18.758;2022-12-18T12:49:46;100468.29;;;0.03;72.90
37904;BME280;23738;50.422;18.758;2022-12-18T12:52:16;100462.52;;;-0.03;72.73
37904;BME280;23738;50.422;18.758;2022-12-18T12:54:51;100468.14;;;-0.10;72.59
37904;BME280;23738;50.422;18.758;2022-12-18T12:57:30;100462.49;;;-0.10;72.74
37904;BME280;23738;50.422;18.758;2022-12-18T13:00:13;100459.52;;;-0.11;72.67
37904;BME280;23738;50.422;18.758;2022-12-18T13:05:48;100464.27;;;-0.26;72.42
37904;BME280;23738;50.422;18.758;2022-12-18T13:08:24;100468.99;;;-0.41;72.38
37904;BME280;23738;50.422;18.758;2022-12-18T13:10:54;100469.64;;;-0.53;72.43
37904;BME280;23738;50.422;18.758;2022-12-18T13:13:54;100465.95;;;-0.65;72.38
37904;BME280;23738;50.422;18.758;2022-12-18T13:16:25;100463.46;;;-0.75;72.28
37904;BME280;23738;50.422;18.758;2022-12-18T13:18:56;100474.47;;;-0.87;72.27
37904;BME280;23738;50.422;18.758;2022-12-18T13:21:33;100484.52;;;-0.97;72.19
37904;BME280;23738;50.422;18.758;2022-12-18T13:24:15;100479.41;;;-1.07;72.26
37904;BME280;23738;50.422;18.758;2022-12-18T13:26:52;100482.47;;;-1.16;72.14
37904;BME280;23738;50.422;18.758;2022-12-18T13:32:23;100485.59;;;-1.35;72.13
37904;BME280;23738;50.422;18.758;2022-12-18T13:37:52;100487.59;;;-1.49;72.01
37904;BME280;23738;50.422;18.758;2022-12-18T13:46:06;100482.08;;;-1.86;71.94
37904;BME280;23738;50.422;18.758;2022-12-18T13:48:33;100488.47;;;-1.93;71.95
37904;BME280;23738;50.422;18.758;2022-12-18T13:51:07;100482.81;;;-2.01;72.00
37904;BME280;23738;50.422;18.758;2022-12-18T13:53:42;100489.20;;;-2.08;71.86
37904;BME280;23738;50.422;18.758;2022-12-18T13:56:26;100482.77;;;-2.18;71.84
37904;BME280;23738;50.422;18.758;2022-12-18T13:59:05;100477.62;;;-2.28;71.82
37904;BME280;23738;50.422;18.758;2022-12-18T14:01:33;100477.00;;;-2.34;71.88
37904;BME280;23738;50.422;18.758;2022-12-18T14:04:17;100467.45;;;-2.42;71.89
37904;BME280;23738;50.422;18.758;2022-12-18T14:07:13;100468.66;;;-2.49;71.81
37904;BME280;23738;50.422;18.758;2022-12-18T14:09:43;100474.30;;;-2.59;71.82
37904;BME280;23738;50.422;18.758;2022-12-18T14:12:31;100472.58;;;-2.69;71.72
37904;BME280;23738;50.422;18.758;2022-12-18T14:15:31;100476.80;;;-2.77;71.64
37904;BME280;23738;50.422;18.758;2022-12-18T14:18:02;100476.13;;;-2.90;71.60
37904;BME280;23738;50.422;18.758;2022-12-18T14:20:31;100469.10;;;-2.97;71.64
37904;BME280;23738;50.422;18.758;2022-12-18T14:22:58;100472.41;;;-3.03;71.60
37904;BME280;23738;50.422;18.758;2022-12-18T14:25:27;100471.63;;;-3.16;71.52
37904;BME280;23738;50.422;18.758;2022-12-18T14:30:37;100478.64;;;-3.28;71.48